首页
METAR-TAF:

METAR-TAF

机场 :

奥马哈, 內布拉斯加州, 美国

纬度: 41-11-45N, 经度: 096-06-44W, 海拔: 320米

当前天气观测

该预报发布于22分钟前的00:55 UTC
风速5节,风向西北
温度 5°C
湿度 75%
气压 1018 hPa
能見度: 16.1公里
散云层高于3400英尺
多云层高于4000英尺
阴天层高于5000英尺

METAR: KMLE 140055Z AUTO 32005KT 10SM SCT034 BKN040 OVC050 05/01 A3006 RMK AO2 T00480008

时间: 19:17 (01:17 UTC)


TAF: 丢失

超过4000个机场的气象观测和天气预报(METAR&TAF报告)。

可查询的气象台以黄色和红色小点在地图上表示。

将鼠标移到小点上方,可查看气象台名称。

然后点击查看天气观测和预报。

如需切换地图:点击带黑十字的绿色按钮放大地图;点击带横线的绿色按钮缩小地图;或者点击绿色箭头查看邻近地区的地图。


METAR-TAF: